Seattle — WDG2490 — position and weather

sailwx.info

Track history (hours):
 
Tides and Currents Weather Stations Pressure Air Temp Water Temp Dewpoint Dewpoint Depression Visibility Wind Speed Wind Dir Waves Ship Positions

Seattle

Owner: TRUENORTH TRANSPORT LLC, Gig Harbor, WA. More information available from US FCC via Universal Licensing System.

Last reported at 2018-Jan-18 00:57 UTC. Time now 2018-Jan-19 07:55 UTC.
Position N 01°15' E 104°01'.

Length 153 m; draft 6.6 m.

Type: Cargo ship. MMSI: 338860000.

Date/timePositionNaut miles runAvg speedWind from/ knotsBaromVisibWave heightAir tempDewpointWater temp
2018-Jan-18 00:57N 01°15' E 104°01'9 9.7
2018-Jan-17 23:59N 01°12' E 103°52'0 8.3
2018-Jan-17 23:56N 01°12' E 103°52'  
2018-Jan-12 13:10N 01°21' E 104°21'21 1.0
2018-Jan-11 17:24N 01°15' E 104°02'611.0
2018-Jan-11 16:54N 01°13' E 103°56'410.7
2018-Jan-11 16:29N 01°11' E 103°52'3 5.6
2018-Jan-11 15:58N 01°13' E 103°50'0 0.6
2018-Jan-11 15:30N 01°13' E 103°49'0 0.1
2018-Jan-11 14:57N 01°13' E 103°49'0 0.3
2018-Jan-11 14:27N 01°13' E 103°49'1 1.6
2018-Jan-11 13:58N 01°13' E 103°48'2 5.0
2018-Jan-11 13:28N 01°14' E 103°47'4 8.0
2018-Jan-11 13:01N 01°14' E 103°43'3 6.9
2018-Jan-11 12:30N 01°14' E 103°39'3 6.3
2018-Jan-11 11:59N 01°17' E 103°41'1 1.0
2018-Jan-11 11:25N 01°18' E 103°41'0 0.0
2018-Jan-11 10:58N 01°18' E 103°41'0 0.0
2018-Jan-11 10:25N 01°18' E 103°41'0 0.0
2018-Jan-11 09:49N 01°18' E 103°41'0 0.0
2018-Jan-11 09:28N 01°18' E 103°41'0 0.0
2018-Jan-11 08:58N 01°18' E 103°41'0 0.0
2018-Jan-11 08:28N 01°18' E 103°41'0 0.0
2018-Jan-11 07:49N 01°18' E 103°41'0 0.0
2018-Jan-11 07:28N 01°18' E 103°41'0 0.0
2018-Jan-11 06:55N 01°18' E 103°41'0 0.0
2018-Jan-11 06:28N 01°18' E 103°41'0 0.0
2018-Jan-11 05:55N 01°18' E 103°41'0 0.0
2018-Jan-11 05:28N 01°18' E 103°41'0 0.0
2018-Jan-11 04:55N 01°18' E 103°41'0 0.0
2018-Jan-11 04:28N 01°18' E 103°41'0 0.0
2018-Jan-11 03:58N 01°18' E 103°41'0 0.0
2018-Jan-11 03:28N 01°18' E 103°41'0 0.0
2018-Jan-11 02:55N 01°18' E 103°41'0 0.0
2018-Jan-11 02:28N 01°18' E 103°41'0 0.0
2018-Jan-11 01:55N 01°18' E 103°41'0 0.0
2018-Jan-11 01:22N 01°18' E 103°41'0 0.0
2018-Jan-11 00:55N 01°18' E 103°41'0 0.0
2018-Jan-11 00:28N 01°18' E 103°41'0 0.0
2018-Jan-10 23:58N 01°18' E 103°41'0 0.0
2018-Jan-10 23:28N 01°18' E 103°41'0 0.0
2018-Jan-10 22:58N 01°18' E 103°41'0 0.0
2018-Jan-10 22:28N 01°18' E 103°41'0 0.0
2018-Jan-10 21:55N 01°18' E 103°41'0 0.0
2018-Jan-10 21:28N 01°18' E 103°41'0 0.0
2018-Jan-10 20:58N 01°18' E 103°41'0 0.0
2018-Jan-10 20:28N 01°18' E 103°41'0 0.0
2018-Jan-10 19:58N 01°18' E 103°41'0 0.0
2018-Jan-10 19:28N 01°18' E 103°41'0 0.0
2018-Jan-10 18:58N 01°18' E 103°41'0 0.0
2018-Jan-10 18:22N 01°18' E 103°41'0 0.0
2018-Jan-10 17:58N 01°18' E 103°41'0 0.0
2018-Jan-10 17:25N 01°18' E 103°41'0 0.0
2018-Jan-10 16:55N 01°18' E 103°41'0 0.0
2018-Jan-10 16:28N 01°18' E 103°41'0 0.0
2018-Jan-10 15:58N 01°18' E 103°41'0 0.0
2018-Jan-10 15:25N 01°18' E 103°41'0 0.0
2018-Jan-10 14:58N 01°18' E 103°41'0 0.0
2018-Jan-10 14:28N 01°18' E 103°41'0 0.0
2018-Jan-10 13:58N 01°18' E 103°41'0 0.0
2018-Jan-10 13:28N 01°18' E 103°41'0 0.0
2018-Jan-10 12:52N 01°18' E 103°41'0 0.0
2018-Jan-10 12:28N 01°18' E 103°41'0 0.0
2018-Jan-10 11:58N 01°18' E 103°41'0 0.0
2018-Jan-10 11:28N 01°18' E 103°41'0 0.0
2018-Jan-10 10:58N 01°18' E 103°41'0 0.0
2018-Jan-10 10:28N 01°18' E 103°41'0 0.0
2018-Jan-10 09:58N 01°18' E 103°41'0 0.0
2018-Jan-10 09:22N 01°18' E 103°41'0 0.0
2018-Jan-10 08:58N 01°18' E 103°41'0 0.0
2018-Jan-10 08:28N 01°18' E 103°41'0 0.0
2018-Jan-10 07:52N 01°18' E 103°41'0 0.0
2018-Jan-10 07:22N 01°18' E 103°41'0 0.0
2018-Jan-10 06:58N 01°18' E 103°41'0 0.0
2018-Jan-10 06:28N 01°18' E 103°41'0 0.0
2018-Jan-10 05:58N 01°18' E 103°41'0 0.0
2018-Jan-10 05:25N 01°18' E 103°41'0 0.0
2018-Jan-10 04:58N 01°18' E 103°41'0 0.0
2018-Jan-10 04:25N 01°18' E 103°41'0 0.0
2018-Jan-10 03:58N 01°18' E 103°41'0 0.0
2018-Jan-10 03:28N 01°18' E 103°41'0 0.0
2018-Jan-10 02:58N 01°18' E 103°41'0 0.0
2018-Jan-10 02:25N 01°18' E 103°41'0 0.0
2018-Jan-10 01:58N 01°18' E 103°41'0 0.0
2018-Jan-10 01:28N 01°18' E 103°41'0 0.0
2018-Jan-10 00:58N 01°18' E 103°41'0 0.0
2018-Jan-10 00:28N 01°18' E 103°41'0 0.0
2018-Jan-09 23:55N 01°18' E 103°41'0 0.0
2018-Jan-09 23:28N 01°18' E 103°41'0 0.0
2018-Jan-09 22:58N 01°18' E 103°41'0 0.0
2018-Jan-09 22:28N 01°18' E 103°41'0 0.0
2018-Jan-09 21:58N 01°18' E 103°41'0 0.0
2018-Jan-09 21:28N 01°18' E 103°41'0 0.0
2018-Jan-09 20:58N 01°18' E 103°41'0 0.0
2018-Jan-09 20:28N 01°18' E 103°41'0 0.0
2018-Jan-09 19:58N 01°18' E 103°41'0 0.0
2018-Jan-09 19:28N 01°18' E 103°41'0 0.0
2018-Jan-09 18:58N 01°18' E 103°41'0 0.0
2018-Jan-09 18:16N 01°18' E 103°41'0 0.0
2018-Jan-09 17:58N 01°18' E 103°41'0 0.0
2018-Jan-09 17:28N 01°18' E 103°41'0 0.0
2018-Jan-09 16:52N 01°18' E 103°41'0 0.0
2018-Jan-09 16:28N 01°18' E 103°41'0 0.0
2018-Jan-09 15:58N 01°18' E 103°41'0 0.0
2018-Jan-09 15:28N 01°18' E 103°41'0 0.0
2018-Jan-09 14:58N 01°18' E 103°41'0 0.0
2018-Jan-09 14:28N 01°18' E 103°41'0 0.0
2018-Jan-09 13:34N 01°18' E 103°41'0 0.0
2018-Jan-09 13:28N 01°18' E 103°41'0 0.0
2018-Jan-09 12:52N 01°18' E 103°41'0 0.0
2018-Jan-09 12:28N 01°18' E 103°41'0 0.0
2018-Jan-09 11:58N 01°18' E 103°41'0 0.0
2018-Jan-09 11:22N 01°18' E 103°41'0 0.0
2018-Jan-09 10:58N 01°18' E 103°41'0 0.0
2018-Jan-09 10:28N 01°18' E 103°41'0 0.0
2018-Jan-09 09:58N 01°18' E 103°41'0 0.0
2018-Jan-09 09:28N 01°18' E 103°41'0 0.0
2018-Jan-09 08:58N 01°18' E 103°41'0 0.0
2018-Jan-09 08:28N 01°18' E 103°41'0 0.0
2018-Jan-09 07:55N 01°18' E 103°41'0 0.0
2018-Jan-09 07:28N 01°18' E 103°41'0 0.0
2018-Jan-09 06:58N 01°18' E 103°41'0 0.0
2018-Jan-09 06:28N 01°18' E 103°41'0 0.1
2018-Jan-09 05:55N 01°18' E 103°41'0 0.1
2018-Jan-09 05:28N 01°18' E 103°41'0 0.0
2018-Jan-09 04:58N 01°18' E 103°41'0 0.0
2018-Jan-09 04:25N 01°18' E 103°41'0 0.1
2018-Jan-09 03:58N 01°18' E 103°41'0 0.0
2018-Jan-09 03:25N 01°18' E 103°41'0 0.1
2018-Jan-09 02:58N 01°18' E 103°41'0 0.0
2018-Jan-09 02:28N 01°18' E 103°41'0 0.0
2018-Jan-09 01:58N 01°18' E 103°41'0 0.0
2018-Jan-09 01:28N 01°18' E 103°41'0 0.0
2018-Jan-09 00:58N 01°18' E 103°41'0 0.0
2018-Jan-09 00:28N 01°18' E 103°41'0 0.0
2018-Jan-08 23:58N 01°18' E 103°41'0 0.0
2018-Jan-08 23:28N 01°18' E 103°41'0 0.0
2018-Jan-08 22:52N 01°18' E 103°41'0 0.0
2018-Jan-08 22:28N 01°18' E 103°41'0 0.0
2018-Jan-08 21:58N 01°18' E 103°41'0 0.0
2018-Jan-08 21:28N 01°18' E 103°41'0 0.0
2018-Jan-08 20:58N 01°18' E 103°41'0 0.0
2018-Jan-08 20:25N 01°18' E 103°41'0 0.0
2018-Jan-08 19:58N 01°18' E 103°41'0 0.0
2018-Jan-08 19:28N 01°18' E 103°41'0 0.0
2018-Jan-08 18:58N 01°18' E 103°41'0 0.0
2018-Jan-08 18:28N 01°18' E 103°41'0 0.0
2018-Jan-08 17:58N 01°18' E 103°41'0 0.0
2018-Jan-08 17:28N 01°18' E 103°41'0 0.0
2018-Jan-08 16:52N 01°18' E 103°41'0 0.0
2018-Jan-08 16:25N 01°18' E 103°41'0 0.0
2018-Jan-08 15:58N 01°18' E 103°41'0 0.0
2018-Jan-08 15:28N 01°18' E 103°41'0 0.0
2018-Jan-08 14:58N 01°18' E 103°41'0 0.0
2018-Jan-08 14:28N 01°18' E 103°41'0 0.0
2018-Jan-08 13:46N 01°18' E 103°41'0 0.0
2018-Jan-08 13:28N 01°18' E 103°41'0 0.0
2018-Jan-08 12:58N 01°18' E 103°41'0 0.0
2018-Jan-08 12:28N 01°18' E 103°41'0 0.0
2018-Jan-08 11:58N 01°18' E 103°41'0 0.0
2018-Jan-08 11:28N 01°18' E 103°41'0 0.1
2018-Jan-08 10:55N 01°18' E 103°41'0 0.1
2018-Jan-08 10:28N 01°18' E 103°41'0 0.0
2018-Jan-08 09:58N 01°18' E 103°41'0 0.0
2018-Jan-08 09:28N 01°18' E 103°41'0 0.0
2018-Jan-08 08:58N 01°18' E 103°41'0 0.0
2018-Jan-08 08:28N 01°18' E 103°41'0 0.0
2018-Jan-08 07:58N 01°18' E 103°41'0 0.0
2018-Jan-08 07:28N 01°18' E 103°41'0 0.0
2018-Jan-08 06:58N 01°18' E 103°41'0 0.0
2018-Jan-08 06:28N 01°18' E 103°41'0 0.1
2018-Jan-08 05:58N 01°18' E 103°41'0 0.1
2018-Jan-08 05:25N 01°18' E 103°41'0 0.0
2018-Jan-08 04:58N 01°18' E 103°41'0 0.0
2018-Jan-08 04:28N 01°18' E 103°41'0 0.0
2018-Jan-08 03:55N 01°18' E 103°41'0 0.1
2018-Jan-08 03:28N 01°18' E 103°41'0 0.1
2018-Jan-08 02:52N 01°18' E 103°41'0 0.2
2018-Jan-08 02:28N 01°18' E 103°41'0 0.1
2018-Jan-08 01:58N 01°18' E 103°41'0 0.0
2018-Jan-08 01:22N 01°18' E 103°41'0 0.0
2018-Jan-08 00:58N 01°18' E 103°41'  
Track history (hours):
 
Tides and Currents Weather Stations Pressure Air Temp Water Temp Dewpoint Dewpoint Depression Visibility Wind Speed Wind Dir Waves Ship Positions

Seattle

Owner: TRUENORTH TRANSPORT LLC, Gig Harbor, WA. More information available from US FCC via Universal Licensing System.

Last reported at 2018-Jan-18 00:57 UTC. Time now 2018-Jan-19 07:55 UTC.
Position N 01°15' E 104°01'.

Length 153 m; draft 6.6 m.

Type: Cargo ship. MMSI: 338860000.

Date/timePositionNaut miles runAvg speedWind from/ knotsBaromVisibWave heightAir tempDewpointWater temp
2018-Jan-18 00:57N 01°15' E 104°01'9 9.7
2018-Jan-17 23:59N 01°12' E 103°52'0 8.3
2018-Jan-17 23:56N 01°12' E 103°52'  
2018-Jan-12 13:10N 01°21' E 104°21'21 1.0
2018-Jan-11 17:24N 01°15' E 104°02'611.0
2018-Jan-11 16:54N 01°13' E 103°56'410.7
2018-Jan-11 16:29N 01°11' E 103°52'3 5.6
2018-Jan-11 15:58N 01°13' E 103°50'0 0.6
2018-Jan-11 15:30N 01°13' E 103°49'0 0.1
2018-Jan-11 14:57N 01°13' E 103°49'0 0.3
2018-Jan-11 14:27N 01°13' E 103°49'1 1.6
2018-Jan-11 13:58N 01°13' E 103°48'2 5.0
2018-Jan-11 13:28N 01°14' E 103°47'4 8.0
2018-Jan-11 13:01N 01°14' E 103°43'3 6.9
2018-Jan-11 12:30N 01°14' E 103°39'3 6.3
2018-Jan-11 11:59N 01°17' E 103°41'1 1.0
2018-Jan-11 11:25N 01°18' E 103°41'0 0.0
2018-Jan-11 10:58N 01°18' E 103°41'0 0.0
2018-Jan-11 10:25N 01°18' E 103°41'0 0.0
2018-Jan-11 09:49N 01°18' E 103°41'0 0.0
2018-Jan-11 09:28N 01°18' E 103°41'0 0.0
2018-Jan-11 08:58N 01°18' E 103°41'0 0.0
2018-Jan-11 08:28N 01°18' E 103°41'0 0.0
2018-Jan-11 07:49N 01°18' E 103°41'0 0.0
2018-Jan-11 07:28N 01°18' E 103°41'0 0.0
2018-Jan-11 06:55N 01°18' E 103°41'0 0.0
2018-Jan-11 06:28N 01°18' E 103°41'0 0.0
2018-Jan-11 05:55N 01°18' E 103°41'0 0.0
2018-Jan-11 05:28N 01°18' E 103°41'0 0.0
2018-Jan-11 04:55N 01°18' E 103°41'0 0.0
2018-Jan-11 04:28N 01°18' E 103°41'0 0.0
2018-Jan-11 03:58N 01°18' E 103°41'0 0.0
2018-Jan-11 03:28N 01°18' E 103°41'0 0.0
2018-Jan-11 02:55N 01°18' E 103°41'0 0.0
2018-Jan-11 02:28N 01°18' E 103°41'0 0.0
2018-Jan-11 01:55N 01°18' E 103°41'0 0.0
2018-Jan-11 01:22N 01°18' E 103°41'0 0.0
2018-Jan-11 00:55N 01°18' E 103°41'0 0.0
2018-Jan-11 00:28N 01°18' E 103°41'0 0.0
2018-Jan-10 23:58N 01°18' E 103°41'0 0.0
2018-Jan-10 23:28N 01°18' E 103°41'0 0.0
2018-Jan-10 22:58N 01°18' E 103°41'0 0.0
2018-Jan-10 22:28N 01°18' E 103°41'0 0.0
2018-Jan-10 21:55N 01°18' E 103°41'0 0.0
2018-Jan-10 21:28N 01°18' E 103°41'0 0.0
2018-Jan-10 20:58N 01°18' E 103°41'0 0.0
2018-Jan-10 20:28N 01°18' E 103°41'0 0.0
2018-Jan-10 19:58N 01°18' E 103°41'0 0.0
2018-Jan-10 19:28N 01°18' E 103°41'0 0.0
2018-Jan-10 18:58N 01°18' E 103°41'0 0.0
2018-Jan-10 18:22N 01°18' E 103°41'0 0.0
2018-Jan-10 17:58N 01°18' E 103°41'0 0.0
2018-Jan-10 17:25N 01°18' E 103°41'0 0.0
2018-Jan-10 16:55N 01°18' E 103°41'0 0.0
2018-Jan-10 16:28N 01°18' E 103°41'0 0.0
2018-Jan-10 15:58N 01°18' E 103°41'0 0.0
2018-Jan-10 15:25N 01°18' E 103°41'0 0.0
2018-Jan-10 14:58N 01°18' E 103°41'0 0.0
2018-Jan-10 14:28N 01°18' E 103°41'0 0.0
2018-Jan-10 13:58N 01°18' E 103°41'0 0.0
2018-Jan-10 13:28N 01°18' E 103°41'0 0.0
2018-Jan-10 12:52N 01°18' E 103°41'0 0.0
2018-Jan-10 12:28N 01°18' E 103°41'0 0.0
2018-Jan-10 11:58N 01°18' E 103°41'0 0.0
2018-Jan-10 11:28N 01°18' E 103°41'0 0.0
2018-Jan-10 10:58N 01°18' E 103°41'0 0.0
2018-Jan-10 10:28N 01°18' E 103°41'0 0.0
2018-Jan-10 09:58N 01°18' E 103°41'0 0.0
2018-Jan-10 09:22N 01°18' E 103°41'0 0.0
2018-Jan-10 08:58N 01°18' E 103°41'0 0.0
2018-Jan-10 08:28N 01°18' E 103°41'0 0.0
2018-Jan-10 07:52N 01°18' E 103°41'0 0.0
2018-Jan-10 07:22N 01°18' E 103°41'0 0.0
2018-Jan-10 06:58N 01°18' E 103°41'0 0.0
2018-Jan-10 06:28N 01°18' E 103°41'0 0.0
2018-Jan-10 05:58N 01°18' E 103°41'0 0.0
2018-Jan-10 05:25N 01°18' E 103°41'0 0.0
2018-Jan-10 04:58N 01°18' E 103°41'0 0.0
2018-Jan-10 04:25N 01°18' E 103°41'0 0.0
2018-Jan-10 03:58N 01°18' E 103°41'0 0.0
2018-Jan-10 03:28N 01°18' E 103°41'0 0.0
2018-Jan-10 02:58N 01°18' E 103°41'0 0.0
2018-Jan-10 02:25N 01°18' E 103°41'0 0.0
2018-Jan-10 01:58N 01°18' E 103°41'0 0.0
2018-Jan-10 01:28N 01°18' E 103°41'0 0.0
2018-Jan-10 00:58N 01°18' E 103°41'0 0.0
2018-Jan-10 00:28N 01°18' E 103°41'0 0.0
2018-Jan-09 23:55N 01°18' E 103°41'0 0.0
2018-Jan-09 23:28N 01°18' E 103°41'0 0.0
2018-Jan-09 22:58N 01°18' E 103°41'0 0.0
2018-Jan-09 22:28N 01°18' E 103°41'0 0.0
2018-Jan-09 21:58N 01°18' E 103°41'0 0.0
2018-Jan-09 21:28N 01°18' E 103°41'0 0.0
2018-Jan-09 20:58N 01°18' E 103°41'0 0.0
2018-Jan-09 20:28N 01°18' E 103°41'0 0.0
2018-Jan-09 19:58N 01°18' E 103°41'0 0.0
2018-Jan-09 19:28N 01°18' E 103°41'0 0.0
2018-Jan-09 18:58N 01°18' E 103°41'0 0.0
2018-Jan-09 18:16N 01°18' E 103°41'0 0.0
2018-Jan-09 17:58N 01°18' E 103°41'0 0.0
2018-Jan-09 17:28N 01°18' E 103°41'0 0.0
2018-Jan-09 16:52N 01°18' E 103°41'0 0.0
2018-Jan-09 16:28N 01°18' E 103°41'0 0.0
2018-Jan-09 15:58N 01°18' E 103°41'0 0.0
2018-Jan-09 15:28N 01°18' E 103°41'0 0.0
2018-Jan-09 14:58N 01°18' E 103°41'0 0.0
2018-Jan-09 14:28N 01°18' E 103°41'0 0.0
2018-Jan-09 13:34N 01°18' E 103°41'0 0.0
2018-Jan-09 13:28N 01°18' E 103°41'0 0.0
2018-Jan-09 12:52N 01°18' E 103°41'0 0.0
2018-Jan-09 12:28N 01°18' E 103°41'0 0.0
2018-Jan-09 11:58N 01°18' E 103°41'0 0.0
2018-Jan-09 11:22N 01°18' E 103°41'0 0.0
2018-Jan-09 10:58N 01°18' E 103°41'0 0.0
2018-Jan-09 10:28N 01°18' E 103°41'0 0.0
2018-Jan-09 09:58N 01°18' E 103°41'0 0.0
2018-Jan-09 09:28N 01°18' E 103°41'0 0.0
2018-Jan-09 08:58N 01°18' E 103°41'0 0.0
2018-Jan-09 08:28N 01°18' E 103°41'0 0.0
2018-Jan-09 07:55N 01°18' E 103°41'0 0.0
2018-Jan-09 07:28N 01°18' E 103°41'0 0.0
2018-Jan-09 06:58N 01°18' E 103°41'0 0.0
2018-Jan-09 06:28N 01°18' E 103°41'0 0.1
2018-Jan-09 05:55N 01°18' E 103°41'0 0.1
2018-Jan-09 05:28N 01°18' E 103°41'0 0.0
2018-Jan-09 04:58N 01°18' E 103°41'0 0.0
2018-Jan-09 04:25N 01°18' E 103°41'0 0.1
2018-Jan-09 03:58N 01°18' E 103°41'0 0.0
2018-Jan-09 03:25N 01°18' E 103°41'0 0.1
2018-Jan-09 02:58N 01°18' E 103°41'0 0.0
2018-Jan-09 02:28N 01°18' E 103°41'0 0.0
2018-Jan-09 01:58N 01°18' E 103°41'0 0.0
2018-Jan-09 01:28N 01°18' E 103°41'0 0.0
2018-Jan-09 00:58N 01°18' E 103°41'0 0.0
2018-Jan-09 00:28N 01°18' E 103°41'0 0.0
2018-Jan-08 23:58N 01°18' E 103°41'0 0.0
2018-Jan-08 23:28N 01°18' E 103°41'0 0.0
2018-Jan-08 22:52N 01°18' E 103°41'0 0.0
2018-Jan-08 22:28N 01°18' E 103°41'0 0.0
2018-Jan-08 21:58N 01°18' E 103°41'0 0.0
2018-Jan-08 21:28N 01°18' E 103°41'0 0.0
2018-Jan-08 20:58N 01°18' E 103°41'0 0.0
2018-Jan-08 20:25N 01°18' E 103°41'0 0.0
2018-Jan-08 19:58N 01°18' E 103°41'0 0.0
2018-Jan-08 19:28N 01°18' E 103°41'0 0.0
2018-Jan-08 18:58N 01°18' E 103°41'0 0.0
2018-Jan-08 18:28N 01°18' E 103°41'0 0.0
2018-Jan-08 17:58N 01°18' E 103°41'0 0.0
2018-Jan-08 17:28N 01°18' E 103°41'0 0.0
2018-Jan-08 16:52N 01°18' E 103°41'0 0.0
2018-Jan-08 16:25N 01°18' E 103°41'0 0.0
2018-Jan-08 15:58N 01°18' E 103°41'0 0.0
2018-Jan-08 15:28N 01°18' E 103°41'0 0.0
2018-Jan-08 14:58N 01°18' E 103°41'0 0.0
2018-Jan-08 14:28N 01°18' E 103°41'0 0.0
2018-Jan-08 13:46N 01°18' E 103°41'0 0.0
2018-Jan-08 13:28N 01°18' E 103°41'0 0.0
2018-Jan-08 12:58N 01°18' E 103°41'0 0.0
2018-Jan-08 12:28N 01°18' E 103°41'0 0.0
2018-Jan-08 11:58N 01°18' E 103°41'0 0.0
2018-Jan-08 11:28N 01°18' E 103°41'0 0.1
2018-Jan-08 10:55N 01°18' E 103°41'0 0.1
2018-Jan-08 10:28N 01°18' E 103°41'0 0.0
2018-Jan-08 09:58N 01°18' E 103°41'0 0.0
2018-Jan-08 09:28N 01°18' E 103°41'0 0.0
2018-Jan-08 08:58N 01°18' E 103°41'0 0.0
2018-Jan-08 08:28N 01°18' E 103°41'0 0.0
2018-Jan-08 07:58N 01°18' E 103°41'0 0.0
2018-Jan-08 07:28N 01°18' E 103°41'0 0.0
2018-Jan-08 06:58N 01°18' E 103°41'0 0.0
2018-Jan-08 06:28N 01°18' E 103°41'0 0.1
2018-Jan-08 05:58N 01°18' E 103°41'0 0.1
2018-Jan-08 05:25N 01°18' E 103°41'0 0.0
2018-Jan-08 04:58N 01°18' E 103°41'0 0.0
2018-Jan-08 04:28N 01°18' E 103°41'0 0.0
2018-Jan-08 03:55N 01°18' E 103°41'0 0.1
2018-Jan-08 03:28N 01°18' E 103°41'0 0.1
2018-Jan-08 02:52N 01°18' E 103°41'0 0.2
2018-Jan-08 02:28N 01°18' E 103°41'0 0.1
2018-Jan-08 01:58N 01°18' E 103°41'0 0.0
2018-Jan-08 01:22N 01°18' E 103°41'0 0.0
2018-Jan-08 00:58N 01°18' E 103°41'  

Dump ship's entire track history